createdAt,value
2023-05-07T00:00:16.970Z,18.25
2023-05-07T00:02:43.830Z,19.10
2023-05-07T00:05:10.673Z,20.33
2023-05-07T00:07:37.420Z,20.27
2023-05-07T00:10:05.275Z,17.90
2023-05-07T00:12:34.487Z,17.15
2023-05-07T00:15:03.347Z,16.13
2023-05-07T00:17:30.643Z,15.77
2023-05-07T00:19:57.121Z,15.18
2023-05-07T00:22:23.623Z,15.93
2023-05-07T00:24:50.056Z,16.15
2023-05-07T00:27:17.032Z,15.40
2023-05-07T00:29:43.546Z,16.90
2023-05-07T00:32:10.222Z,16.38
2023-05-07T00:34:36.842Z,16.40
2023-05-07T00:37:05.267Z,14.88
2023-05-07T00:39:32.987Z,16.10
2023-05-07T00:41:59.629Z,15.35
2023-05-07T00:44:26.160Z,15.82
2023-05-07T00:46:52.876Z,15.32
2023-05-07T00:49:19.388Z,16.23
2023-05-07T00:51:46.388Z,14.68
2023-05-07T00:54:13.242Z,15.10
2023-05-07T00:56:40.194Z,15.15
2023-05-07T00:59:07.370Z,15.80
2023-05-07T01:01:33.964Z,15.50
2023-05-07T01:04:01.365Z,15.63
2023-05-07T01:06:28.831Z,15.63
2023-05-07T01:08:57.795Z,17.52
2023-05-07T01:11:24.449Z,14.90
2023-05-07T01:13:51.693Z,15.18
2023-05-07T01:16:18.332Z,18.60
2023-05-07T01:18:45.607Z,17.42
2023-05-07T01:21:13.056Z,17.80
2023-05-07T01:23:40.730Z,20.17
2023-05-07T01:26:07.238Z,18.38
2023-05-07T01:28:34.983Z,22.65
2023-05-07T01:31:04.479Z,22.33
2023-05-07T01:33:34.672Z,23.77
2023-05-07T01:36:03.234Z,24.63
2023-05-07T01:38:30.206Z,25.42
2023-05-07T01:40:56.979Z,23.35
2023-05-07T01:43:23.561Z,24.38
2023-05-07T01:45:50.325Z,22.90
2023-05-07T01:48:17.057Z,26.60
2023-05-07T01:50:44.599Z,28.08
2023-05-07T01:53:11.185Z,24.95
2023-05-07T01:55:41.012Z,28.67
2023-05-07T01:58:07.986Z,29.38
2023-05-07T02:00:34.533Z,29.40
2023-05-07T02:03:01.087Z,29.98
2023-05-07T02:05:39.054Z,26.95
2023-05-07T02:08:12.691Z,30.20
2023-05-07T02:10:39.214Z,31.98
2023-05-07T02:13:07.208Z,26.50
2023-05-07T02:15:33.791Z,25.13
2023-05-07T02:18:11.122Z,25.58
2023-05-07T02:20:38.119Z,21.77
2023-05-07T02:23:04.641Z,22.17
2023-05-07T02:25:31.585Z,24.83
2023-05-07T02:27:58.923Z,22.45
2023-05-07T02:30:38.200Z,22.60
2023-05-07T02:33:04.956Z,22.23
2023-05-07T02:35:31.931Z,24.95
2023-05-07T02:37:58.662Z,25.20
2023-05-07T02:40:26.000Z,24.45
2023-05-07T02:42:52.666Z,22.33
2023-05-07T02:45:19.183Z,22.63
2023-05-07T02:47:47.402Z,20.98
2023-05-07T02:50:14.368Z,23.05
2023-05-07T02:52:40.937Z,26.95
2023-05-07T02:55:07.870Z,20.48
2023-05-07T02:57:34.319Z,23.65
2023-05-07T03:00:00.889Z,23.63
2023-05-07T03:02:30.314Z,24.83
2023-05-07T03:04:57.021Z,22.30
2023-05-07T03:07:23.506Z,22.33
2023-05-07T03:09:50.013Z,20.77
2023-05-07T03:12:16.680Z,21.83
2023-05-07T03:14:43.136Z,26.75
2023-05-07T03:17:09.618Z,21.65
2023-05-07T03:19:36.150Z,21.08
2023-05-07T03:22:03.010Z,20.63
2023-05-07T03:24:29.648Z,22.02
2023-05-07T03:26:56.184Z,19.45
2023-05-07T03:29:22.836Z,23.45
2023-05-07T03:31:49.445Z,21.50
2023-05-07T03:34:17.865Z,18.77
2023-05-07T03:36:44.467Z,20.60
2023-05-07T03:39:12.574Z,20.80
2023-05-07T03:41:41.058Z,19.33
2023-05-07T03:44:07.613Z,19.45
2023-05-07T03:46:34.645Z,18.73
2023-05-07T03:49:01.418Z,20.05
2023-05-07T03:51:28.283Z,18.85
2023-05-07T03:53:54.848Z,18.92
2023-05-07T03:56:22.793Z,21.08
2023-05-07T03:58:54.899Z,19.23
2023-05-07T04:01:21.445Z,19.35
2023-05-07T04:03:48.473Z,19.45
2023-05-07T04:06:16.912Z,20.50
2023-05-07T04:08:45.215Z,20.30
2023-05-07T04:11:11.922Z,19.42
2023-05-07T04:13:38.538Z,21.70
2023-05-07T04:16:07.237Z,21.60
2023-05-07T04:18:35.914Z,21.20
2023-05-07T04:21:02.464Z,21.92
2023-05-07T04:23:28.993Z,21.65
2023-05-07T04:25:58.411Z,23.85
2023-05-07T04:28:37.472Z,22.52
2023-05-07T04:31:04.110Z,25.20
2023-05-07T04:33:33.096Z,24.27
2023-05-07T04:36:03.687Z,24.13
2023-05-07T04:38:32.426Z,23.10
2023-05-07T04:41:04.992Z,22.38
2023-05-07T04:43:32.520Z,23.75
2023-05-07T04:45:59.909Z,23.15
2023-05-07T04:48:28.269Z,23.98
2023-05-07T04:50:54.818Z,24.13
2023-05-07T04:53:22.391Z,23.55
2023-05-07T04:55:50.451Z,23.45
2023-05-07T04:58:17.300Z,24.20
2023-05-07T05:00:46.389Z,25.45
2023-05-07T05:03:13.032Z,23.25
2023-05-07T05:05:40.184Z,24.98
2023-05-07T05:08:06.750Z,25.02
2023-05-07T05:10:36.410Z,27.13
2023-05-07T05:13:02.977Z,25.70
2023-05-07T05:15:29.908Z,27.75
2023-05-07T05:17:57.873Z,25.40
2023-05-07T05:20:24.618Z,24.02
2023-05-07T05:22:51.124Z,25.77
2023-05-07T05:25:17.690Z,25.73
2023-05-07T05:27:44.195Z,24.95
2023-05-07T05:30:12.000Z,24.30
2023-05-07T05:32:39.200Z,26.25
2023-05-07T05:35:06.912Z,24.65
2023-05-07T05:37:33.960Z,23.77
2023-05-07T05:40:02.973Z,22.98
2023-05-07T05:42:30.763Z,23.25
2023-05-07T05:44:57.452Z,24.13
2023-05-07T05:47:24.640Z,27.75
2023-05-07T05:49:54.496Z,24.85
2023-05-07T05:52:21.093Z,23.98
2023-05-07T05:54:47.577Z,23.05
2023-05-07T05:57:14.446Z,22.60
2023-05-07T05:59:41.108Z,23.88
2023-05-07T06:02:08.330Z,23.27
2023-05-07T06:04:35.036Z,22.65
2023-05-07T06:07:02.242Z,23.85
2023-05-07T06:09:28.747Z,25.52
2023-05-07T06:11:55.568Z,25.58
2023-05-07T06:14:22.357Z,24.35
2023-05-07T06:16:49.331Z,24.15
2023-05-07T06:19:15.986Z,26.63
2023-05-07T06:21:42.879Z,25.50
2023-05-07T06:24:09.628Z,24.25
2023-05-07T06:26:38.500Z,24.77
2023-05-07T06:29:05.380Z,24.55
2023-05-07T06:31:32.962Z,24.15
2023-05-07T06:34:03.559Z,23.90
2023-05-07T06:36:36.529Z,23.88
2023-05-07T06:39:11.452Z,24.77
2023-05-07T06:41:38.047Z,24.60
2023-05-07T06:44:09.895Z,24.15
2023-05-07T06:46:44.506Z,22.45
2023-05-07T06:49:13.860Z,22.45
2023-05-07T06:51:40.979Z,24.55
2023-05-07T06:54:07.540Z,20.85
2023-05-07T06:56:36.768Z,22.00
2023-05-07T06:59:05.653Z,22.42
2023-05-07T07:01:36.691Z,24.75
2023-05-07T07:04:04.750Z,21.00
2023-05-07T07:06:32.823Z,20.40
2023-05-07T07:09:01.425Z,19.90
2023-05-07T07:11:28.303Z,21.92
2023-05-07T07:13:55.532Z,21.88
2023-05-07T07:16:22.998Z,19.77
2023-05-07T07:18:52.066Z,19.38
2023-05-07T07:21:19.905Z,20.17
2023-05-07T07:23:46.958Z,19.95
2023-05-07T07:26:13.554Z,19.63
2023-05-07T07:28:46.776Z,19.48
2023-05-07T07:31:17.226Z,20.25
2023-05-07T07:33:44.452Z,21.38
2023-05-07T07:36:11.065Z,20.05
2023-05-07T07:38:38.638Z,19.33
2023-05-07T07:41:05.561Z,19.33
2023-05-07T07:43:32.126Z,19.85
2023-05-07T07:45:58.994Z,19.17
2023-05-07T07:48:27.075Z,19.30
2023-05-07T07:50:54.203Z,18.80
2023-05-07T07:53:21.100Z,17.60
2023-05-07T07:55:47.934Z,18.88
2023-05-07T07:58:17.757Z,17.35
2023-05-07T08:00:44.507Z,16.23
2023-05-07T08:03:12.888Z,15.07
2023-05-07T08:05:44.102Z,16.90
2023-05-07T08:08:11.189Z,17.73
2023-05-07T08:10:40.251Z,18.10
2023-05-07T08:13:13.963Z,18.77
2023-05-07T08:15:42.141Z,18.83
2023-05-07T08:18:09.085Z,17.58
2023-05-07T08:20:40.316Z,17.30
2023-05-07T08:23:09.184Z,16.40
2023-05-07T08:25:36.019Z,16.27
2023-05-07T08:28:04.302Z,15.52
2023-05-07T08:30:31.630Z,14.77
2023-05-07T08:32:58.308Z,15.65
2023-05-07T08:35:24.982Z,15.82
2023-05-07T08:37:51.709Z,15.52
2023-05-07T08:40:19.937Z,16.52
2023-05-07T08:42:47.147Z,15.90
2023-05-07T08:45:14.055Z,14.25
2023-05-07T08:47:48.100Z,13.65
2023-05-07T08:50:17.335Z,14.45
2023-05-07T08:52:44.852Z,13.93
2023-05-07T08:55:12.546Z,14.10
2023-05-07T08:57:40.269Z,14.05
2023-05-07T09:00:08.942Z,13.88
2023-05-07T09:02:37.958Z,13.55
2023-05-07T09:05:06.335Z,14.80
2023-05-07T09:07:33.857Z,12.77
2023-05-07T09:10:03.667Z,14.77
2023-05-07T09:12:30.673Z,15.23
2023-05-07T09:14:58.346Z,15.43
2023-05-07T09:17:25.162Z,18.70
2023-05-07T09:19:52.074Z,15.52
2023-05-07T09:22:18.717Z,13.15
2023-05-07T09:24:54.841Z,12.75
2023-05-07T09:27:25.248Z,13.07
2023-05-07T09:29:51.874Z,13.27
2023-05-07T09:32:18.379Z,12.32
2023-05-07T09:34:45.212Z,12.35
2023-05-07T09:37:14.136Z,11.25
2023-05-07T09:39:45.799Z,12.07
2023-05-07T09:42:16.073Z,10.07
2023-05-07T09:44:45.148Z,11.20
2023-05-07T09:47:19.820Z,11.50
2023-05-07T09:49:49.700Z,11.55
2023-05-07T09:52:20.799Z,10.13
2023-05-07T09:54:51.198Z,11.35
2023-05-07T09:57:21.157Z,11.07
2023-05-07T09:59:52.772Z,10.82
2023-05-07T10:02:21.232Z,11.30
2023-05-07T10:04:51.692Z,12.15
2023-05-07T10:07:23.510Z,11.25
2023-05-07T10:09:54.655Z,11.65
2023-05-07T10:12:37.725Z,10.52
2023-05-07T10:15:07.845Z,10.60
2023-05-07T10:17:38.802Z,10.63
2023-05-07T10:20:08.501Z,9.75
2023-05-07T10:22:43.850Z,10.73
2023-05-07T10:25:18.685Z,10.20
2023-05-07T10:27:47.838Z,10.90
2023-05-07T10:30:28.164Z,9.48
2023-05-07T10:32:58.927Z,10.15
2023-05-07T10:35:33.688Z,10.48
2023-05-07T10:38:03.773Z,9.85
2023-05-07T10:40:32.686Z,9.45
2023-05-07T10:43:08.413Z,10.13
2023-05-07T10:45:44.682Z,9.48
2023-05-07T10:50:48.575Z,8.68
2023-05-07T10:53:18.209Z,8.63
2023-05-07T10:55:54.890Z,9.55
2023-05-07T10:58:32.546Z,8.82
2023-05-07T11:02:00.159Z,8.23
2023-05-07T11:04:36.428Z,8.85
2023-05-07T11:07:25.146Z,9.07
2023-05-07T11:09:53.484Z,9.02
2023-05-07T11:12:38.853Z,9.43
2023-05-07T11:15:13.469Z,9.30
2023-05-07T11:17:57.311Z,9.55
2023-05-07T11:20:49.982Z,8.68
2023-05-07T11:23:36.517Z,8.10
2023-05-07T11:26:13.516Z,8.60
2023-05-07T11:28:42.484Z,8.35
2023-05-07T11:31:09.708Z,9.18
2023-05-07T11:33:39.602Z,9.07
2023-05-07T11:36:09.747Z,9.23
2023-05-07T11:38:41.720Z,9.50
2023-05-07T11:41:08.571Z,8.95
2023-05-07T11:43:37.023Z,8.70
2023-05-07T11:46:08.495Z,9.60
2023-05-07T11:48:35.337Z,9.63
2023-05-07T11:51:02.940Z,10.00
2023-05-07T11:53:36.553Z,9.02
2023-05-07T11:56:11.023Z,8.45
2023-05-07T11:58:37.930Z,9.13
2023-05-07T12:01:04.707Z,8.82
2023-05-07T12:03:32.315Z,9.15
2023-05-07T12:06:02.578Z,8.40
2023-05-07T12:08:29.043Z,11.13
2023-05-07T12:10:55.813Z,7.65
2023-05-07T12:13:23.822Z,8.35
2023-05-07T12:15:56.434Z,7.78
2023-05-07T12:18:23.970Z,7.38
2023-05-07T12:20:51.350Z,7.75
2023-05-07T12:23:18.376Z,7.43
2023-05-07T12:25:48.642Z,6.90
2023-05-07T12:28:18.797Z,6.85
2023-05-07T12:30:49.144Z,7.53
2023-05-07T12:33:22.073Z,7.13
2023-05-07T12:35:49.180Z,6.70
2023-05-07T12:38:18.450Z,6.82
2023-05-07T12:40:51.089Z,7.03
2023-05-07T12:43:22.253Z,7.03
2023-05-07T12:45:50.387Z,6.65
2023-05-07T12:48:16.947Z,6.38
2023-05-07T12:50:44.036Z,6.55
2023-05-07T12:53:13.037Z,5.78
2023-05-07T12:55:51.036Z,7.53
2023-05-07T12:58:19.250Z,8.48
2023-05-07T13:00:46.447Z,8.30
2023-05-07T13:03:13.150Z,8.60
2023-05-07T13:05:40.026Z,8.40
2023-05-07T13:08:06.845Z,7.80
2023-05-07T13:10:35.002Z,6.90
2023-05-07T13:13:01.561Z,7.40
2023-05-07T13:15:28.182Z,6.85
2023-05-07T13:17:54.787Z,7.03
2023-05-07T13:20:21.331Z,8.48
2023-05-07T13:22:47.835Z,7.95
2023-05-07T13:25:14.533Z,7.93
2023-05-07T13:27:41.398Z,7.95
2023-05-07T13:30:08.509Z,7.25
2023-05-07T13:32:35.025Z,6.95
2023-05-07T13:35:01.764Z,6.45
2023-05-07T13:37:28.308Z,6.43
2023-05-07T13:39:54.827Z,7.85
2023-05-07T13:42:21.331Z,7.50
2023-05-07T13:44:47.927Z,7.25
2023-05-07T13:47:14.506Z,7.78
2023-05-07T13:49:41.171Z,10.50
2023-05-07T13:52:07.704Z,7.78
2023-05-07T13:54:34.190Z,7.63
2023-05-07T13:57:01.480Z,7.53
2023-05-07T13:59:27.973Z,7.70
2023-05-07T14:01:55.780Z,7.47
2023-05-07T14:04:22.305Z,8.23
2023-05-07T14:06:48.895Z,10.13
2023-05-07T14:09:15.484Z,7.28
2023-05-07T14:11:42.233Z,7.15
2023-05-07T14:14:11.642Z,8.07
2023-05-07T14:16:38.383Z,6.97
2023-05-07T14:19:04.949Z,7.70
2023-05-07T14:21:31.881Z,7.25
2023-05-07T14:23:58.413Z,8.80
2023-05-07T14:26:24.907Z,7.65
2023-05-07T14:28:51.411Z,8.80
2023-05-07T14:31:18.078Z,7.47
2023-05-07T14:33:44.625Z,7.70
2023-05-07T14:36:11.165Z,7.20
2023-05-07T14:38:37.644Z,7.03
2023-05-07T14:41:04.274Z,6.85
2023-05-07T14:43:30.804Z,6.35
2023-05-07T14:45:57.312Z,6.05
2023-05-07T14:48:23.832Z,6.80
2023-05-07T14:50:50.342Z,7.88
2023-05-07T14:53:16.983Z,6.25
2023-05-07T14:55:43.614Z,9.48
2023-05-07T14:58:11.458Z,7.50
2023-05-07T15:00:38.035Z,6.03
2023-05-07T15:03:10.213Z,7.53
2023-05-07T15:05:37.261Z,5.95
2023-05-07T15:08:03.824Z,6.38
2023-05-07T15:10:30.303Z,7.00
2023-05-07T15:12:56.827Z,7.20
2023-05-07T15:15:23.343Z,7.72
2023-05-07T15:17:50.734Z,5.97
2023-05-07T15:20:18.459Z,6.38
2023-05-07T15:22:45.002Z,7.38
2023-05-07T15:25:12.814Z,5.95
2023-05-07T15:27:40.052Z,5.88
2023-05-07T15:30:09.429Z,10.30
2023-05-07T15:32:36.039Z,5.85
2023-05-07T15:35:04.690Z,6.10
2023-05-07T15:37:34.448Z,5.68
2023-05-07T15:40:05.192Z,5.50
2023-05-07T15:42:31.646Z,5.72
2023-05-07T15:44:58.289Z,6.60
2023-05-07T15:47:24.772Z,5.85
2023-05-07T15:49:51.707Z,8.98
2023-05-07T15:52:18.418Z,5.40
2023-05-07T15:54:45.032Z,6.05
2023-05-07T15:57:12.214Z,4.68
2023-05-07T15:59:38.689Z,5.72
2023-05-07T16:02:05.463Z,5.10
2023-05-07T16:04:32.139Z,7.95
2023-05-07T16:06:58.669Z,5.75
2023-05-07T16:09:25.750Z,5.20
2023-05-07T16:11:52.251Z,4.40
2023-05-07T16:14:18.723Z,5.10
2023-05-07T16:16:45.390Z,4.07
2023-05-07T16:19:11.893Z,4.22
2023-05-07T16:21:38.405Z,5.03
2023-05-07T16:24:04.963Z,3.78
2023-05-07T16:26:31.647Z,3.72
2023-05-07T16:28:58.890Z,3.63
2023-05-07T16:31:25.981Z,3.63
2023-05-07T16:33:52.507Z,5.03
2023-05-07T16:36:19.701Z,6.43
2023-05-07T16:38:46.973Z,17.20
2023-05-07T16:41:13.610Z,3.90
2023-05-07T16:43:40.079Z,4.70
2023-05-07T16:46:06.596Z,4.38
2023-05-07T16:48:33.189Z,3.80
2023-05-07T16:50:59.734Z,6.63
2023-05-07T16:53:26.231Z,4.13
2023-05-07T16:55:56.325Z,4.72
2023-05-07T16:58:23.094Z,4.50
2023-05-07T17:00:51.222Z,4.40
2023-05-07T17:03:18.639Z,4.88
2023-05-07T17:05:45.679Z,4.60
2023-05-07T17:08:13.648Z,5.95
2023-05-07T17:10:41.058Z,4.80
2023-05-07T17:13:07.865Z,5.03
2023-05-07T17:15:34.625Z,4.82
2023-05-07T17:18:01.200Z,4.88
2023-05-07T17:20:27.827Z,5.07
2023-05-07T17:22:55.465Z,5.50
2023-05-07T17:25:23.364Z,5.82
2023-05-07T17:27:49.992Z,5.53
2023-05-07T17:30:16.620Z,6.20
2023-05-07T17:32:43.145Z,5.60
2023-05-07T17:35:09.889Z,5.82
2023-05-07T17:37:36.356Z,5.75
2023-05-07T17:40:03.241Z,6.35
2023-05-07T17:42:29.849Z,6.88
2023-05-07T17:44:56.344Z,6.18
2023-05-07T17:47:22.880Z,6.78
2023-05-07T17:49:49.482Z,6.70
2023-05-07T17:52:16.150Z,6.68
2023-05-07T17:54:42.693Z,7.03
2023-05-07T17:57:09.157Z,7.25
2023-05-07T17:59:35.660Z,8.57
2023-05-07T18:02:02.145Z,7.55
2023-05-07T18:04:28.716Z,8.52
2023-05-07T18:06:55.261Z,8.27
2023-05-07T18:09:21.737Z,7.40
2023-05-07T18:11:48.308Z,7.40
2023-05-07T18:14:14.822Z,7.40
2023-05-07T18:16:41.469Z,8.73
2023-05-07T18:19:08.073Z,8.40
2023-05-07T18:21:34.591Z,8.30
2023-05-07T18:24:01.142Z,8.15
2023-05-07T18:26:27.816Z,8.65
2023-05-07T18:28:54.313Z,11.68
2023-05-07T18:31:21.464Z,8.48
2023-05-07T18:33:47.997Z,8.73
2023-05-07T18:36:14.469Z,8.63
2023-05-07T18:38:42.672Z,8.68
2023-05-07T18:41:09.295Z,8.40
2023-05-07T18:43:35.954Z,8.25
2023-05-07T18:46:02.595Z,8.52
2023-05-07T18:48:29.218Z,7.90
2023-05-07T18:50:55.766Z,8.40
2023-05-07T18:53:22.265Z,11.38
2023-05-07T18:55:52.389Z,8.25
2023-05-07T18:58:20.112Z,8.32
2023-05-07T19:00:47.584Z,8.27
2023-05-07T19:03:15.475Z,8.73
2023-05-07T19:05:45.521Z,8.20
2023-05-07T19:08:13.916Z,9.68
2023-05-07T19:10:40.435Z,9.02
2023-05-07T19:13:07.088Z,8.70
2023-05-07T19:15:33.839Z,9.25
2023-05-07T19:18:00.522Z,10.98
2023-05-07T19:20:27.150Z,8.85
2023-05-07T19:22:53.653Z,9.43
2023-05-07T19:25:20.289Z,9.93
2023-05-07T19:27:47.970Z,9.80
2023-05-07T19:30:14.553Z,9.48
2023-05-07T19:32:41.077Z,8.38
2023-05-07T19:35:08.022Z,9.57
2023-05-07T19:37:34.765Z,8.75
2023-05-07T19:40:05.033Z,8.43
2023-05-07T19:42:31.782Z,8.95
2023-05-07T19:44:58.297Z,8.23
2023-05-07T19:47:24.792Z,8.90
2023-05-07T19:49:51.339Z,9.38
2023-05-07T19:52:17.899Z,8.13
2023-05-07T19:54:44.376Z,9.25
2023-05-07T19:57:10.940Z,8.90
2023-05-07T19:59:37.494Z,10.02
2023-05-07T20:02:04.132Z,9.88
2023-05-07T20:04:33.103Z,9.68
2023-05-07T20:07:00.022Z,9.50
2023-05-07T20:09:26.620Z,9.75
2023-05-07T20:11:53.108Z,10.07
2023-05-07T20:14:19.584Z,10.60
2023-05-07T20:16:46.070Z,11.38
2023-05-07T20:19:12.643Z,11.00
2023-05-07T20:21:39.120Z,11.05
2023-05-07T20:24:06.805Z,10.02
2023-05-07T20:26:33.340Z,10.45
2023-05-07T20:28:59.807Z,10.85
2023-05-07T20:31:26.337Z,10.30
2023-05-07T20:33:53.053Z,10.52
2023-05-07T20:36:19.619Z,10.30
2023-05-07T20:38:46.161Z,10.95
2023-05-07T20:41:14.560Z,11.82
2023-05-07T20:43:41.811Z,11.85
2023-05-07T20:46:08.432Z,11.15
2023-05-07T20:48:35.397Z,10.60
2023-05-07T20:51:02.303Z,11.25
2023-05-07T20:53:30.029Z,10.90
2023-05-07T20:55:57.049Z,11.05
2023-05-07T20:58:26.313Z,9.98
2023-05-07T21:00:53.268Z,10.93
2023-05-07T21:03:20.684Z,11.15
2023-05-07T21:05:54.092Z,11.30
2023-05-07T21:08:20.620Z,9.60
2023-05-07T21:10:47.386Z,11.65
2023-05-07T21:13:13.970Z,10.20
2023-05-07T21:15:43.339Z,10.93
2023-05-07T21:18:10.757Z,11.98
2023-05-07T21:20:37.557Z,10.45
2023-05-07T21:23:04.529Z,10.30
2023-05-07T21:25:31.189Z,9.82
2023-05-07T21:27:57.878Z,11.70
2023-05-07T21:30:24.412Z,10.13
2023-05-07T21:32:51.184Z,10.68
2023-05-07T21:35:17.662Z,10.63
2023-05-07T21:37:44.136Z,10.32
2023-05-07T21:40:11.127Z,11.23
2023-05-07T21:42:37.743Z,10.82
2023-05-07T21:45:07.314Z,11.05
2023-05-07T21:47:33.863Z,12.75
2023-05-07T21:50:01.069Z,10.30
2023-05-07T21:52:27.622Z,11.23
2023-05-07T21:54:54.185Z,10.63
2023-05-07T21:57:21.073Z,10.60
2023-05-07T21:59:47.720Z,11.40
2023-05-07T22:02:14.192Z,11.55
2023-05-07T22:04:40.746Z,10.55
2023-05-07T22:07:07.209Z,13.30
2023-05-07T22:09:33.727Z,11.35
2023-05-07T22:12:00.288Z,11.85
2023-05-07T22:14:26.855Z,9.63
2023-05-07T22:16:53.475Z,10.82
2023-05-07T22:19:20.141Z,12.10
2023-05-07T22:21:46.614Z,10.80
2023-05-07T22:24:13.109Z,10.25
2023-05-07T22:26:39.647Z,10.43
2023-05-07T22:29:06.236Z,9.27
2023-05-07T22:31:32.822Z,12.02
2023-05-07T22:33:59.337Z,10.80
2023-05-07T22:36:25.879Z,10.85
2023-05-07T22:38:52.379Z,11.90
2023-05-07T22:41:18.880Z,11.40
2023-05-07T22:43:45.406Z,9.35
2023-05-07T22:46:11.977Z,12.32
2023-05-07T22:48:38.483Z,10.30
2023-05-07T22:51:05.117Z,9.88
2023-05-07T22:53:31.629Z,9.82
2023-05-07T22:55:58.338Z,9.27
2023-05-07T22:58:24.879Z,10.20
2023-05-07T23:00:51.428Z,11.27
2023-05-07T23:03:18.098Z,11.30
2023-05-07T23:05:44.788Z,9.38
2023-05-07T23:08:11.551Z,11.23
2023-05-07T23:10:38.110Z,10.60
2023-05-07T23:13:04.692Z,9.95
2023-05-07T23:15:33.233Z,11.82
2023-05-07T23:18:00.279Z,11.05
2023-05-07T23:20:26.929Z,13.20
2023-05-07T23:22:53.408Z,11.25
2023-05-07T23:25:19.974Z,11.32
2023-05-07T23:27:46.891Z,11.93
2023-05-07T23:30:13.800Z,10.82
2023-05-07T23:32:40.511Z,11.38
2023-05-07T23:35:08.055Z,10.02
2023-05-07T23:37:34.644Z,11.95
2023-05-07T23:40:01.139Z,12.07
2023-05-07T23:42:27.589Z,11.75
2023-05-07T23:44:54.077Z,11.63
2023-05-07T23:47:21.539Z,12.30
2023-05-07T23:49:48.136Z,11.75
2023-05-07T23:52:14.626Z,10.18
2023-05-07T23:54:41.095Z,10.98
2023-05-07T23:57:07.636Z,12.43
2023-05-07T23:59:34.095Z,15.32
